createdAt,value
2022-08-17T00:00:18.285Z,15.38
2022-08-17T00:03:19.896Z,12.52
2022-08-17T00:06:02.153Z,13.85
2022-08-17T00:08:40.122Z,13.02
2022-08-17T00:11:16.587Z,13.30
2022-08-17T00:14:01.084Z,13.23
2022-08-17T00:16:57.375Z,13.27
2022-08-17T00:19:26.463Z,19.25
2022-08-17T00:22:33.653Z,17.00
2022-08-17T00:24:44.703Z,12.88
2022-08-17T00:27:11.597Z,15.95
2022-08-17T00:29:38.809Z,17.98
2022-08-17T00:33:16.005Z,14.02
2022-08-17T00:34:53.488Z,14.98
2022-08-17T00:37:20.369Z,13.18
2022-08-17T00:39:47.366Z,17.73
2022-08-17T00:42:19.652Z,14.18
2022-08-17T00:44:46.761Z,18.33
2022-08-17T00:47:13.880Z,13.07
2022-08-17T00:49:40.925Z,15.95
2022-08-17T00:52:16.722Z,13.85
2022-08-17T00:54:47.269Z,14.30
2022-08-17T00:57:18.912Z,17.35
2022-08-17T01:00:04.205Z,15.23
2022-08-17T01:02:42.112Z,13.90
2022-08-17T01:05:18.440Z,13.95
2022-08-17T01:07:47.978Z,15.88
2022-08-17T01:10:59.967Z,15.75
2022-08-17T01:13:07.237Z,13.65
2022-08-17T01:15:38.953Z,15.10
2022-08-17T01:18:09.504Z,13.80
2022-08-17T01:20:50.853Z,14.70
2022-08-17T01:23:21.233Z,14.68
2022-08-17T01:25:53.645Z,13.55
2022-08-17T01:28:33.495Z,13.70
2022-08-17T01:31:10.199Z,15.98
2022-08-17T01:33:38.503Z,17.42
2022-08-17T01:36:07.411Z,16.42
2022-08-17T01:38:39.412Z,15.23
2022-08-17T01:41:12.530Z,15.13
2022-08-17T01:43:54.521Z,14.68
2022-08-17T01:46:32.266Z,17.98
2022-08-17T01:49:00.328Z,17.48
2022-08-17T01:51:32.744Z,16.33
2022-08-17T01:54:07.641Z,14.48
2022-08-17T01:56:40.907Z,15.15
2022-08-17T01:59:08.851Z,16.75
2022-08-17T02:01:37.082Z,15.95
2022-08-17T02:04:06.462Z,14.65
2022-08-17T02:06:52.422Z,16.10
2022-08-17T02:09:26.262Z,16.45
2022-08-17T02:12:00.389Z,19.10
2022-08-17T02:14:47.385Z,15.98
2022-08-17T02:17:14.302Z,19.00
2022-08-17T02:19:41.833Z,18.40
2022-08-17T02:22:09.010Z,17.33
2022-08-17T02:24:58.149Z,18.98
2022-08-17T02:27:25.946Z,18.02
2022-08-17T02:29:53.068Z,25.13
2022-08-17T02:32:28.003Z,23.52
2022-08-17T02:34:57.956Z,18.73
2022-08-17T02:37:27.206Z,16.65
2022-08-17T02:39:57.051Z,17.77
2022-08-17T02:42:38.418Z,15.82
2022-08-17T02:45:13.867Z,18.17
2022-08-17T02:47:41.588Z,15.60
2022-08-17T02:50:11.844Z,18.35
2022-08-17T02:52:43.335Z,16.08
2022-08-17T02:55:21.984Z,18.25
2022-08-17T02:57:50.363Z,17.45
2022-08-17T03:00:34.138Z,15.95
2022-08-17T03:03:04.056Z,16.58
2022-08-17T03:05:35.444Z,17.48
2022-08-17T03:08:03.095Z,15.55
2022-08-17T03:10:30.423Z,16.80
2022-08-17T03:12:57.668Z,18.27
2022-08-17T03:15:28.814Z,15.15
2022-08-17T03:17:56.720Z,15.57
2022-08-17T03:20:28.390Z,16.15
2022-08-17T03:23:02.876Z,17.65
2022-08-17T03:25:38.795Z,18.25
2022-08-17T03:28:06.690Z,19.77
2022-08-17T03:30:34.488Z,15.15
2022-08-17T03:33:05.058Z,17.25
2022-08-17T03:35:34.969Z,14.85
2022-08-17T03:38:02.359Z,14.38
2022-08-17T03:40:34.465Z,17.50
2022-08-17T03:43:21.392Z,15.77
2022-08-17T03:46:10.898Z,19.02
2022-08-17T03:49:13.334Z,21.80
2022-08-17T03:54:43.837Z,13.73
2022-08-17T03:57:12.537Z,16.15
2022-08-17T03:59:40.905Z,15.68
2022-08-17T04:02:23.303Z,14.25
2022-08-17T04:04:51.069Z,13.60
2022-08-17T04:07:25.602Z,14.77
2022-08-17T04:09:52.484Z,18.10
2022-08-17T04:12:22.393Z,17.77
2022-08-17T04:14:52.568Z,21.55
2022-08-17T04:17:24.079Z,22.00
2022-08-17T04:19:51.154Z,20.90
2022-08-17T04:22:30.712Z,18.80
2022-08-17T04:25:06.707Z,21.80
2022-08-17T04:27:33.663Z,19.27
2022-08-17T04:30:01.482Z,18.45
2022-08-17T04:33:04.215Z,21.13
2022-08-17T04:35:23.471Z,22.27
2022-08-17T04:37:51.262Z,18.33
2022-08-17T04:40:39.128Z,16.95
2022-08-17T04:43:18.823Z,20.02
2022-08-17T04:46:05.659Z,23.15
2022-08-17T04:48:37.581Z,22.85
2022-08-17T04:51:25.148Z,21.08
2022-08-17T04:53:56.216Z,20.33
2022-08-17T04:56:25.876Z,28.42
2022-08-17T04:59:02.611Z,21.10
2022-08-17T05:01:33.845Z,22.38
2022-08-17T05:04:33.035Z,23.88
2022-08-17T05:06:54.499Z,24.30
2022-08-17T05:09:21.659Z,28.65
2022-08-17T05:11:49.345Z,27.10
2022-08-17T05:14:16.232Z,30.42
2022-08-17T05:16:43.104Z,23.92
2022-08-17T05:19:09.978Z,29.55
2022-08-17T05:21:37.727Z,24.88
2022-08-17T05:24:06.086Z,25.50
2022-08-17T05:26:52.819Z,24.10
2022-08-17T05:29:19.713Z,25.63
2022-08-17T05:31:46.604Z,26.00
2022-08-17T05:34:13.499Z,27.48
2022-08-17T05:36:42.928Z,27.98
2022-08-17T05:39:15.983Z,33.55
2022-08-17T05:41:46.567Z,33.90
2022-08-17T05:44:13.520Z,33.28
2022-08-17T05:46:48.161Z,26.95
2022-08-17T05:49:19.025Z,29.13
2022-08-17T05:52:20.005Z,28.75
2022-08-17T05:55:55.073Z,27.42
2022-08-17T05:58:29.838Z,28.75
2022-08-17T06:01:10.235Z,32.05
2022-08-17T06:04:05.591Z,28.77
2022-08-17T06:06:52.519Z,30.80
2022-08-17T06:09:46.311Z,28.85
2022-08-17T06:12:33.417Z,27.65
2022-08-17T06:15:36.015Z,27.48
2022-08-17T06:18:08.592Z,28.88
2022-08-17T06:20:53.026Z,27.10
2022-08-17T06:23:49.219Z,26.40
2022-08-17T06:29:03.459Z,28.33
2022-08-17T06:31:38.584Z,27.88
2022-08-17T06:34:10.322Z,26.58
2022-08-17T06:37:21.222Z,23.45
2022-08-17T06:40:45.601Z,24.58
2022-08-17T06:43:44.053Z,26.02
2022-08-17T06:46:25.469Z,31.08
2022-08-17T06:49:14.722Z,30.50
2022-08-17T06:51:50.614Z,31.70
2022-08-17T06:54:29.535Z,27.45
2022-08-17T06:57:20.490Z,31.45
2022-08-17T07:00:01.112Z,34.50
2022-08-17T07:02:52.537Z,29.27
2022-08-17T07:05:27.036Z,33.47
2022-08-17T07:08:14.746Z,32.75
2022-08-17T07:10:50.227Z,32.90
2022-08-17T07:13:29.343Z,30.02
2022-08-17T07:16:08.071Z,29.65
2022-08-17T07:18:35.107Z,31.05
2022-08-17T07:21:18.013Z,30.90
2022-08-17T07:24:11.130Z,26.75
2022-08-17T07:27:23.321Z,29.38
2022-08-17T07:30:11.687Z,30.52
2022-08-17T07:33:26.348Z,30.75
2022-08-17T07:35:53.702Z,26.63
2022-08-17T07:38:31.118Z,31.63
2022-08-17T07:41:00.526Z,29.35
2022-08-17T07:43:39.077Z,31.30
2022-08-17T07:46:32.180Z,27.02
2022-08-17T07:49:23.981Z,24.42
2022-08-17T07:51:51.220Z,28.50
2022-08-17T07:54:33.477Z,26.70
2022-08-17T07:57:30.245Z,23.38
2022-08-17T07:59:59.801Z,28.95
2022-08-17T08:02:38.686Z,28.42
2022-08-17T08:05:29.882Z,23.05
2022-08-17T08:08:42.794Z,27.85
2022-08-17T08:11:15.301Z,22.00
2022-08-17T08:13:45.679Z,23.33
2022-08-17T08:16:24.405Z,23.90
2022-08-17T08:18:59.857Z,22.90
2022-08-17T08:24:55.768Z,22.17
2022-08-17T08:27:42.076Z,25.70
2022-08-17T08:30:21.239Z,28.55
2022-08-17T08:33:04.274Z,24.88
2022-08-17T08:35:37.906Z,27.63
2022-08-17T08:38:49.278Z,26.63
2022-08-17T08:41:47.526Z,23.15
2022-08-17T08:44:59.796Z,23.40
2022-08-17T08:47:42.141Z,23.88
2022-08-17T08:50:40.439Z,25.25
2022-08-17T08:53:39.379Z,22.38
2022-08-17T08:56:31.758Z,22.40
2022-08-17T08:59:07.901Z,20.48
2022-08-17T09:01:57.768Z,23.17
2022-08-17T09:05:10.389Z,22.25
2022-08-17T09:10:07.211Z,20.25
2022-08-17T09:12:49.017Z,21.77
2022-08-17T09:15:22.386Z,22.08
2022-08-17T09:18:59.210Z,21.30
2022-08-17T09:21:20.950Z,21.25
2022-08-17T09:24:12.847Z,24.30
2022-08-17T09:27:06.924Z,26.52
2022-08-17T09:29:40.436Z,27.00
2022-08-17T09:32:34.119Z,26.15
2022-08-17T09:35:19.960Z,27.73
2022-08-17T09:38:00.407Z,23.95
2022-08-17T09:40:55.641Z,23.83
2022-08-17T09:43:43.892Z,21.90
2022-08-17T09:46:47.838Z,21.15
2022-08-17T09:49:31.132Z,23.30
2022-08-17T09:52:08.443Z,24.63
2022-08-17T09:54:40.563Z,23.23
2022-08-17T09:57:30.425Z,21.75
2022-08-17T10:00:23.697Z,22.40
2022-08-17T10:03:18.074Z,23.83
2022-08-17T10:05:51.247Z,28.83
2022-08-17T10:08:52.300Z,26.55
2022-08-17T10:12:02.720Z,23.63
2022-08-17T10:14:55.159Z,23.88
2022-08-17T10:17:38.625Z,23.30
2022-08-17T10:20:22.732Z,26.27
2022-08-17T10:23:19.755Z,27.42
2022-08-17T10:26:11.885Z,25.17
2022-08-17T10:29:02.873Z,26.80
2022-08-17T10:32:01.544Z,29.13
2022-08-17T10:34:54.228Z,22.73
2022-08-17T10:37:46.626Z,23.75
2022-08-17T10:40:47.939Z,26.08
2022-08-17T10:43:34.801Z,27.25
2022-08-17T10:46:30.628Z,27.23
2022-08-17T10:49:27.158Z,27.75
2022-08-17T10:52:02.042Z,25.60
2022-08-17T10:54:45.763Z,29.65
2022-08-17T10:57:31.611Z,24.80
2022-08-17T11:00:25.538Z,27.33
2022-08-17T11:02:57.520Z,23.58
2022-08-17T11:06:53.862Z,28.80
2022-08-17T11:09:43.722Z,27.05
2022-08-17T11:12:51.252Z,23.45
2022-08-17T11:15:59.477Z,26.15
2022-08-17T11:19:10.049Z,28.40
2022-08-17T11:22:22.346Z,25.40
2022-08-17T11:24:52.918Z,29.55
2022-08-17T11:27:30.323Z,27.98
2022-08-17T11:30:06.772Z,25.90
2022-08-17T11:32:53.068Z,32.65
2022-08-17T11:35:26.810Z,26.02
2022-08-17T11:38:16.215Z,30.08
2022-08-17T11:41:10.687Z,27.17
2022-08-17T11:44:10.583Z,26.05
2022-08-17T11:47:38.772Z,27.63
2022-08-17T11:50:48.694Z,29.83
2022-08-17T11:53:37.250Z,29.52
2022-08-17T11:56:09.503Z,27.30
2022-08-17T11:58:42.103Z,30.73
2022-08-17T12:01:55.759Z,32.35
2022-08-17T12:04:33.809Z,30.15
2022-08-17T12:07:16.012Z,29.80
2022-08-17T12:09:48.126Z,26.27
2022-08-17T12:12:20.347Z,28.02
2022-08-17T12:15:10.181Z,27.70
2022-08-17T12:17:52.230Z,28.52
2022-08-17T12:20:30.358Z,24.10
2022-08-17T12:23:23.444Z,26.02
2022-08-17T12:26:01.072Z,26.80
2022-08-17T12:28:32.930Z,26.30
2022-08-17T12:31:23.581Z,29.52
2022-08-17T12:33:51.851Z,29.52
2022-08-17T12:36:24.787Z,30.00
2022-08-17T12:39:14.419Z,29.60
2022-08-17T12:41:52.576Z,29.10
2022-08-17T12:44:32.000Z,28.30
2022-08-17T12:47:22.175Z,36.90
2022-08-17T12:49:53.310Z,32.10
2022-08-17T12:52:28.248Z,32.47
2022-08-17T12:55:26.406Z,30.35
2022-08-17T12:57:59.763Z,29.73
2022-08-17T13:00:47.319Z,32.58
2022-08-17T13:03:22.437Z,34.53
2022-08-17T13:05:52.429Z,32.83
2022-08-17T13:08:26.106Z,38.08
2022-08-17T13:11:03.343Z,30.63
2022-08-17T13:13:34.657Z,35.33
2022-08-17T13:16:09.377Z,33.28
2022-08-17T13:18:50.494Z,33.45
2022-08-17T13:21:26.987Z,37.42
2022-08-17T13:24:07.714Z,37.90
2022-08-17T13:26:42.788Z,33.78
2022-08-17T13:29:35.306Z,36.05
2022-08-17T13:32:13.224Z,37.80
2022-08-17T13:35:07.801Z,36.72
2022-08-17T13:37:36.562Z,38.78
2022-08-17T13:40:09.374Z,36.15
2022-08-17T13:42:52.931Z,36.20
2022-08-17T13:45:35.176Z,34.88
2022-08-17T13:48:27.002Z,36.03
2022-08-17T13:50:56.883Z,35.88
2022-08-17T13:53:26.187Z,37.90
2022-08-17T13:55:58.497Z,35.75
2022-08-17T13:58:31.943Z,34.95
2022-08-17T14:01:33.045Z,36.22
2022-08-17T14:04:06.094Z,39.97
2022-08-17T14:06:55.189Z,38.78
2022-08-17T14:09:33.557Z,38.15
2022-08-17T14:12:16.361Z,37.22
2022-08-17T14:14:44.898Z,44.03
2022-08-17T14:17:12.671Z,37.08
2022-08-17T14:19:39.733Z,39.50
2022-08-17T14:22:30.498Z,39.33
2022-08-17T14:24:59.475Z,40.75
2022-08-17T14:27:28.314Z,40.30
2022-08-17T14:29:56.383Z,42.22
2022-08-17T14:32:32.384Z,43.47
2022-08-17T14:35:00.766Z,48.00
2022-08-17T14:37:29.462Z,47.97
2022-08-17T14:40:07.311Z,45.42
2022-08-17T14:42:37.341Z,46.22
2022-08-17T14:45:07.555Z,40.72
2022-08-17T14:47:54.523Z,42.30
2022-08-17T14:50:22.830Z,43.47
2022-08-17T14:52:50.875Z,42.47
2022-08-17T14:55:18.740Z,38.83
2022-08-17T14:57:46.027Z,40.70
2022-08-17T15:00:16.476Z,43.63
2022-08-17T15:02:53.743Z,39.17
2022-08-17T15:05:24.588Z,39.65
2022-08-17T15:07:53.329Z,43.47
2022-08-17T15:10:20.870Z,43.30
2022-08-17T15:12:47.881Z,46.00
2022-08-17T15:15:17.335Z,41.38
2022-08-17T15:17:45.891Z,45.65
2022-08-17T15:20:29.538Z,45.35
2022-08-17T15:23:00.151Z,40.40
2022-08-17T15:25:33.717Z,47.50
2022-08-17T15:28:01.461Z,40.20
2022-08-17T15:30:29.091Z,43.22
2022-08-17T15:32:58.475Z,38.92
2022-08-17T15:35:29.830Z,34.70
2022-08-17T15:38:11.054Z,42.17
2022-08-17T15:40:43.488Z,39.03
2022-08-17T15:43:22.055Z,40.38
2022-08-17T15:46:03.879Z,38.63
2022-08-17T15:48:42.428Z,37.75
2022-08-17T15:51:15.983Z,39.53
2022-08-17T15:53:47.746Z,36.53
2022-08-17T15:56:15.396Z,35.45
2022-08-17T15:58:44.514Z,31.45
2022-08-17T16:01:15.013Z,37.40
2022-08-17T16:04:04.859Z,32.35
2022-08-17T16:06:34.568Z,35.55
2022-08-17T16:09:01.583Z,35.28
2022-08-17T16:11:28.528Z,31.50
2022-08-17T16:13:55.440Z,34.17
2022-08-17T16:16:24.251Z,34.75
2022-08-17T16:18:56.244Z,30.13
2022-08-17T16:21:25.932Z,38.35
2022-08-17T16:24:13.435Z,32.63
2022-08-17T16:26:42.370Z,31.27
2022-08-17T16:29:09.959Z,32.35
2022-08-17T16:31:37.761Z,35.97
2022-08-17T16:34:17.093Z,34.88
2022-08-17T16:36:54.779Z,39.60
2022-08-17T16:39:27.344Z,36.50
2022-08-17T16:41:55.973Z,35.70
2022-08-17T16:44:23.726Z,36.92
2022-08-17T16:46:50.723Z,45.53
2022-08-17T16:49:36.325Z,41.83
2022-08-17T16:52:12.542Z,44.75
2022-08-17T16:54:44.411Z,43.92
2022-08-17T16:57:13.436Z,43.35
2022-08-17T16:59:44.941Z,43.63
2022-08-17T17:02:23.995Z,45.20
2022-08-17T17:05:03.745Z,49.45
2022-08-17T17:08:16.082Z,45.35
2022-08-17T17:10:48.627Z,53.22
2022-08-17T17:13:41.237Z,50.03
2022-08-17T17:16:35.818Z,54.50
2022-08-17T17:19:34.265Z,51.55
2022-08-17T17:22:15.058Z,57.30
2022-08-17T17:25:24.530Z,60.88
2022-08-17T17:28:27.026Z,46.53
2022-08-17T17:31:23.766Z,49.20
2022-08-17T17:33:55.933Z,32.55
2022-08-17T17:36:50.124Z,33.38
2022-08-17T17:40:02.244Z,40.40
2022-08-17T17:42:32.185Z,33.72
2022-08-17T17:45:17.276Z,34.47
2022-08-17T17:47:45.157Z,42.92
2022-08-17T17:50:12.348Z,41.60
2022-08-17T17:52:57.986Z,34.40
2022-08-17T17:55:50.539Z,28.25
2022-08-17T17:58:49.265Z,29.73
2022-08-17T18:01:52.157Z,39.45
2022-08-17T18:04:36.589Z,29.27
2022-08-17T18:07:15.653Z,25.92
2022-08-17T18:10:29.323Z,26.67
2022-08-17T18:13:53.303Z,29.50
2022-08-17T18:16:21.034Z,28.02
2022-08-17T18:18:50.065Z,24.85
2022-08-17T18:21:22.943Z,25.55
2022-08-17T18:24:04.731Z,23.02
2022-08-17T18:26:45.124Z,25.85
2022-08-17T18:29:36.706Z,25.63
2022-08-17T18:32:26.851Z,22.85
2022-08-17T18:35:28.226Z,25.02
2022-08-17T18:38:20.422Z,23.88
2022-08-17T18:41:01.123Z,25.05
2022-08-17T18:43:52.716Z,23.30
2022-08-17T18:46:33.408Z,41.88
2022-08-17T18:49:10.487Z,26.30
2022-08-17T18:51:42.885Z,22.88
2022-08-17T18:54:23.883Z,21.42
2022-08-17T18:56:59.883Z,21.67
2022-08-17T18:59:48.244Z,26.08
2022-08-17T19:02:28.339Z,27.40
2022-08-17T19:05:26.480Z,22.73
2022-08-17T19:07:53.997Z,24.25
2022-08-17T19:10:28.735Z,22.88
2022-08-17T19:13:12.637Z,28.42
2022-08-17T19:16:11.821Z,23.57
2022-08-17T19:18:49.158Z,26.40
2022-08-17T19:21:23.467Z,19.67
2022-08-17T19:24:19.433Z,19.55
2022-08-17T19:30:08.276Z,19.02
2022-08-17T19:32:35.734Z,25.30
2022-08-17T19:35:06.764Z,25.10
2022-08-17T19:37:43.045Z,25.45
2022-08-17T19:40:53.231Z,25.30
2022-08-17T19:44:03.449Z,28.95
2022-08-17T19:46:48.721Z,25.23
2022-08-17T19:49:41.118Z,24.05
2022-08-17T19:52:52.735Z,34.28
2022-08-17T19:55:47.982Z,22.35
2022-08-17T19:58:39.827Z,23.13
2022-08-17T20:01:16.625Z,23.13
2022-08-17T20:04:11.539Z,22.48
2022-08-17T20:06:44.558Z,21.63
2022-08-17T20:09:33.998Z,22.17
2022-08-17T20:12:11.450Z,23.38
2022-08-17T20:14:53.926Z,23.17
2022-08-17T20:17:29.566Z,25.20
2022-08-17T20:20:29.866Z,23.92
2022-08-17T20:23:12.688Z,22.70
2022-08-17T20:25:47.510Z,25.45
2022-08-17T20:28:25.601Z,24.95
2022-08-17T20:30:54.838Z,23.63
2022-08-17T20:33:33.630Z,25.92
2022-08-17T20:36:23.988Z,27.42
2022-08-17T20:38:58.143Z,26.00
2022-08-17T20:41:30.750Z,24.23
2022-08-17T20:43:57.579Z,25.58
2022-08-17T20:46:36.431Z,22.98
2022-08-17T20:49:09.122Z,24.73
2022-08-17T20:52:10.611Z,22.65
2022-08-17T20:54:54.176Z,23.55
2022-08-17T20:57:33.129Z,26.13
2022-08-17T21:00:32.834Z,23.60
2022-08-17T21:03:24.302Z,25.63
2022-08-17T21:05:59.741Z,24.63
2022-08-17T21:08:33.325Z,22.98
2022-08-17T21:11:59.952Z,27.65
2022-08-17T21:14:33.306Z,26.10
2022-08-17T21:17:40.470Z,22.92
2022-08-17T21:20:27.627Z,24.90
2022-08-17T21:23:40.282Z,24.23
2022-08-17T21:26:29.654Z,24.90
2022-08-17T21:29:30.859Z,24.30
2022-08-17T21:32:02.565Z,24.33
2022-08-17T21:34:44.991Z,24.15
2022-08-17T21:37:22.194Z,23.70
2022-08-17T21:39:55.112Z,26.30
2022-08-17T21:42:34.599Z,37.55
2022-08-17T21:45:11.657Z,27.30
2022-08-17T21:47:43.665Z,29.42
2022-08-17T21:50:24.269Z,26.27
2022-08-17T21:52:56.041Z,24.73
2022-08-17T21:55:30.715Z,33.30
2022-08-17T21:58:11.494Z,29.25
2022-08-17T22:00:44.509Z,33.80
2022-08-17T22:03:26.044Z,36.40
2022-08-17T22:05:53.058Z,40.90
2022-08-17T22:08:25.055Z,34.08
2022-08-17T22:11:01.649Z,36.17
2022-08-17T22:13:29.574Z,29.98
2022-08-17T22:16:29.270Z,36.55
2022-08-17T22:18:58.908Z,32.75
2022-08-17T22:21:26.493Z,37.83
2022-08-17T22:24:15.965Z,36.30
2022-08-17T22:27:11.668Z,37.40
2022-08-17T22:29:59.499Z,39.58
2022-08-17T22:32:43.699Z,36.03
2022-08-17T22:35:42.645Z,33.05
2022-08-17T22:38:18.342Z,37.58
2022-08-17T22:40:51.758Z,30.38
2022-08-17T22:43:24.186Z,32.08
2022-08-17T22:45:57.655Z,39.40
2022-08-17T22:48:28.502Z,32.40
2022-08-17T22:51:21.358Z,32.63
2022-08-17T22:54:11.624Z,28.25
2022-08-17T22:57:06.155Z,32.10
2022-08-17T23:02:30.237Z,27.98
2022-08-17T23:05:10.163Z,29.15
2022-08-17T23:07:37.690Z,28.98
2022-08-17T23:10:06.448Z,27.20
2022-08-17T23:12:38.885Z,33.15
2022-08-17T23:15:15.837Z,27.83
2022-08-17T23:17:43.210Z,27.17
2022-08-17T23:20:17.627Z,28.88
2022-08-17T23:22:52.239Z,28.98
2022-08-17T23:28:01.408Z,33.05
2022-08-17T23:30:35.710Z,33.63
2022-08-17T23:33:14.430Z,28.92
2022-08-17T23:35:41.501Z,26.98
2022-08-17T23:38:11.770Z,27.95
2022-08-17T23:40:40.093Z,30.30
2022-08-17T23:43:24.448Z,32.05
2022-08-17T23:45:54.544Z,34.30
2022-08-17T23:48:35.003Z,30.98
2022-08-17T23:51:15.317Z,25.48
2022-08-17T23:53:47.518Z,26.20
2022-08-17T23:56:15.390Z,28.02
2022-08-17T23:58:44.678Z,28.17
